createdAt,value
2019-06-15T00:00:38.061Z,6.70
2019-06-15T00:01:38.106Z,6.90
2019-06-15T00:02:38.025Z,7.00
2019-06-15T00:03:38.112Z,6.60
2019-06-15T00:04:38.015Z,6.40
2019-06-15T00:05:38.023Z,6.60
2019-06-15T00:06:37.945Z,6.70
2019-06-15T00:07:38.042Z,6.60
2019-06-15T00:08:37.906Z,6.60
2019-06-15T00:09:37.952Z,6.10
2019-06-15T00:10:37.873Z,7.00
2019-06-15T00:11:37.953Z,7.00
2019-06-15T00:12:37.821Z,6.50
2019-06-15T00:13:37.866Z,6.60
2019-06-15T00:14:37.780Z,7.10
2019-06-15T00:15:37.759Z,7.60
2019-06-15T00:16:37.750Z,7.80
2019-06-15T00:17:37.781Z,7.50
2019-06-15T00:18:37.701Z,7.50
2019-06-15T00:19:37.690Z,7.00
2019-06-15T00:20:37.670Z,7.30
2019-06-15T00:21:37.711Z,7.60
2019-06-15T00:22:37.620Z,6.70
2019-06-15T00:23:37.624Z,7.50
2019-06-15T00:24:37.572Z,7.40
2019-06-15T00:25:37.631Z,7.50
2019-06-15T00:26:37.544Z,7.20
2019-06-15T00:27:37.539Z,7.20
2019-06-15T00:28:37.496Z,7.50
2019-06-15T00:29:37.562Z,7.80
2019-06-15T00:30:37.463Z,7.50
2019-06-15T00:31:37.431Z,7.90
2019-06-15T00:32:37.491Z,7.40
2019-06-15T00:33:37.415Z,7.80
2019-06-15T00:34:37.480Z,7.50
2019-06-15T00:35:37.352Z,8.10
2019-06-15T00:36:37.330Z,7.80
2019-06-15T00:37:37.312Z,7.90
2019-06-15T00:38:37.400Z,8.10
2019-06-15T00:39:37.283Z,7.40
2019-06-15T00:40:37.314Z,7.60
2019-06-15T00:41:37.244Z,7.80
2019-06-15T00:42:37.211Z,7.60
2019-06-15T00:43:37.241Z,7.90
2019-06-15T00:44:37.171Z,8.40
2019-06-15T00:45:37.242Z,8.40
2019-06-15T00:46:37.130Z,9.10
2019-06-15T00:47:37.110Z,9.40
2019-06-15T00:48:37.161Z,9.10
2019-06-15T00:49:37.071Z,9.60
2019-06-15T00:50:37.080Z,10.00
2019-06-15T00:51:37.031Z,9.60
2019-06-15T00:52:37.009Z,9.60
2019-06-15T00:53:37.005Z,9.60
2019-06-15T00:54:49.731Z,9.40
2019-06-15T00:55:36.946Z,9.80
2019-06-15T00:56:37.000Z,9.50
2019-06-15T00:57:36.905Z,9.60
2019-06-15T00:58:36.921Z,9.40
2019-06-15T00:59:36.863Z,9.90
2019-06-15T01:00:36.933Z,10.00
2019-06-15T01:01:36.835Z,9.60
2019-06-15T01:02:36.840Z,9.10
2019-06-15T01:03:36.841Z,9.00
2019-06-15T01:04:36.763Z,9.40
2019-06-15T01:05:36.763Z,9.20
2019-06-15T01:06:36.732Z,9.60
2019-06-15T01:07:36.772Z,9.50
2019-06-15T01:08:37.694Z,10.80
2019-06-15T01:09:36.661Z,10.40
2019-06-15T01:10:36.681Z,10.50
2019-06-15T01:11:36.611Z,10.40
2019-06-15T01:12:36.702Z,11.00
2019-06-15T01:13:36.579Z,10.80
2019-06-15T01:14:36.613Z,10.70
2019-06-15T01:15:36.543Z,10.60
2019-06-15T01:16:36.622Z,10.50
2019-06-15T01:17:36.493Z,10.20
2019-06-15T01:18:36.538Z,9.90
2019-06-15T01:19:36.532Z,9.80
2019-06-15T01:20:36.432Z,10.00
2019-06-15T01:21:36.442Z,9.60
2019-06-15T01:22:36.393Z,10.10
2019-06-15T01:23:36.463Z,9.00
2019-06-15T01:24:36.360Z,9.20
2019-06-15T01:25:36.336Z,9.60
2019-06-15T01:26:36.372Z,9.70
2019-06-15T01:27:36.282Z,9.30
2019-06-15T01:28:36.282Z,9.60
2019-06-15T01:29:36.254Z,9.20
2019-06-15T01:30:36.300Z,9.70
2019-06-15T01:31:36.201Z,9.30
2019-06-15T01:32:36.210Z,10.20
2019-06-15T01:33:36.164Z,10.10
2019-06-15T01:34:36.222Z,10.70
2019-06-15T01:35:36.112Z,10.90
2019-06-15T01:36:36.150Z,11.20
2019-06-15T01:37:36.082Z,10.30
2019-06-15T01:38:36.142Z,10.60
2019-06-15T01:39:36.042Z,10.90
2019-06-15T01:40:36.011Z,10.50
2019-06-15T01:41:36.060Z,10.90
2019-06-15T01:42:35.973Z,11.10
2019-06-15T01:43:35.970Z,11.20
2019-06-15T01:44:35.929Z,11.20
2019-06-15T01:45:35.911Z,11.10
2019-06-15T01:46:35.892Z,11.60
2019-06-15T01:47:35.895Z,11.50
2019-06-15T01:48:35.858Z,11.50
2019-06-15T01:49:35.912Z,11.60
2019-06-15T01:50:35.804Z,11.70
2019-06-15T01:51:35.783Z,11.50
2019-06-15T01:52:35.823Z,11.10
2019-06-15T01:53:35.740Z,11.80
2019-06-15T01:54:35.832Z,10.90
2019-06-15T01:55:35.701Z,11.40
2019-06-15T01:56:35.688Z,10.80
2019-06-15T01:57:35.755Z,11.90
2019-06-15T01:58:35.649Z,11.80
2019-06-15T01:59:35.661Z,11.50
2019-06-15T02:00:35.590Z,11.20
2019-06-15T02:01:35.589Z,12.30
2019-06-15T02:02:35.557Z,11.60
2019-06-15T02:03:35.592Z,12.50
2019-06-15T02:04:35.512Z,12.30
2019-06-15T02:05:35.596Z,12.20
2019-06-15T02:06:35.483Z,12.70
2019-06-15T02:07:35.511Z,12.10
2019-06-15T02:08:35.430Z,12.20
2019-06-15T02:09:35.524Z,12.50
2019-06-15T02:10:35.386Z,12.10
2019-06-15T02:11:35.433Z,13.00
2019-06-15T02:12:35.347Z,13.50
2019-06-15T02:13:35.352Z,13.90
2019-06-15T02:14:35.303Z,13.30
2019-06-15T02:15:35.352Z,14.10
2019-06-15T02:16:35.262Z,14.30
2019-06-15T02:17:35.242Z,14.70
2019-06-15T02:18:35.221Z,14.70
2019-06-15T02:19:35.274Z,15.00
2019-06-15T02:20:35.182Z,14.90
2019-06-15T02:21:35.197Z,15.50
2019-06-15T02:22:35.132Z,14.40
2019-06-15T02:23:35.206Z,14.90
2019-06-15T02:24:35.103Z,15.10
2019-06-15T02:25:36.579Z,15.10
2019-06-15T02:26:35.051Z,14.70
2019-06-15T02:27:35.124Z,14.50
2019-06-15T02:28:35.002Z,15.00
2019-06-15T02:29:35.041Z,14.80
2019-06-15T02:30:35.007Z,15.00
2019-06-15T02:31:35.051Z,15.30
2019-06-15T02:32:34.922Z,14.70
2019-06-15T02:33:34.915Z,15.10
2019-06-15T02:34:34.881Z,15.50
2019-06-15T02:35:34.963Z,15.10
2019-06-15T02:36:34.847Z,15.60
2019-06-15T02:37:34.872Z,14.70
2019-06-15T02:38:34.880Z,15.30
2019-06-15T02:39:34.774Z,14.70
2019-06-15T02:40:34.815Z,14.60
2019-06-15T02:41:34.745Z,15.60
2019-06-15T02:42:34.803Z,15.10
2019-06-15T02:43:34.691Z,14.20
2019-06-15T02:44:34.671Z,13.80
2019-06-15T02:45:34.741Z,14.70
2019-06-15T02:46:34.644Z,15.60
2019-06-15T02:47:34.631Z,15.30
2019-06-15T02:48:34.592Z,16.00
2019-06-15T02:49:34.562Z,15.60
2019-06-15T02:50:34.543Z,15.70
2019-06-15T02:51:34.572Z,16.60
2019-06-15T02:52:34.504Z,16.40
2019-06-15T02:53:34.585Z,17.20
2019-06-15T02:54:34.471Z,17.80
2019-06-15T02:55:34.440Z,17.60
2019-06-15T02:56:34.480Z,18.10
2019-06-15T02:57:34.401Z,18.50
2019-06-15T02:58:34.390Z,18.90
2019-06-15T02:59:34.351Z,18.80
2019-06-15T03:00:34.416Z,18.90
2019-06-15T03:01:34.312Z,17.70
2019-06-15T03:02:34.312Z,18.40
2019-06-15T03:03:34.262Z,18.30
2019-06-15T03:04:34.330Z,18.50
2019-06-15T03:05:34.344Z,17.70
2019-06-15T03:06:34.200Z,18.30
2019-06-15T03:07:34.243Z,19.20
2019-06-15T03:08:34.169Z,18.90
2019-06-15T03:09:34.163Z,19.20
2019-06-15T03:10:34.122Z,19.20
2019-06-15T03:11:34.104Z,18.30
2019-06-15T03:12:34.172Z,18.80
2019-06-15T03:13:34.054Z,19.20
2019-06-15T03:14:34.081Z,19.20
2019-06-15T03:15:34.011Z,20.50
2019-06-15T03:16:34.103Z,20.20
2019-06-15T03:17:33.976Z,18.40
2019-06-15T03:18:34.011Z,19.80
2019-06-15T03:19:33.920Z,19.50
2019-06-15T03:20:33.924Z,18.80
2019-06-15T03:21:33.889Z,19.20
2019-06-15T03:22:33.931Z,19.30
2019-06-15T03:23:33.910Z,19.20
2019-06-15T03:24:33.853Z,19.50
2019-06-15T03:25:33.805Z,18.90
2019-06-15T03:26:33.771Z,19.50
2019-06-15T03:27:33.751Z,19.40
2019-06-15T03:28:33.764Z,19.00
2019-06-15T03:29:33.713Z,18.00
2019-06-15T03:30:33.882Z,17.90
2019-06-15T03:31:33.690Z,18.40
2019-06-15T03:32:33.693Z,17.90
2019-06-15T03:33:33.621Z,18.80
2019-06-15T03:34:33.703Z,18.90
2019-06-15T03:35:33.582Z,19.10
2019-06-15T03:36:33.617Z,18.20
2019-06-15T03:37:33.543Z,18.80
2019-06-15T03:38:40.835Z,19.90
2019-06-15T03:40:37.571Z,20.70
2019-06-15T03:41:37.481Z,20.60
2019-06-15T03:43:30.511Z,21.20
2019-06-15T03:44:30.430Z,21.90
2019-06-15T03:46:34.534Z,21.50
2019-06-15T03:47:34.503Z,22.20
2019-06-15T03:49:38.556Z,22.00
2019-06-15T03:50:38.450Z,23.00
2019-06-15T03:52:42.492Z,21.60
2019-06-15T03:53:42.463Z,21.90
2019-06-15T03:55:46.570Z,21.90
2019-06-15T03:56:46.484Z,21.70
2019-06-15T03:58:50.587Z,22.10
2019-06-15T03:59:50.502Z,22.40
2019-06-15T04:01:54.590Z,21.60
2019-06-15T04:02:54.512Z,21.60
2019-06-15T04:04:58.563Z,22.50
2019-06-15T04:05:58.582Z,23.60
2019-06-15T04:08:02.611Z,24.10
2019-06-15T04:09:02.540Z,24.20
2019-06-15T04:11:06.634Z,25.90
2019-06-15T04:12:06.542Z,25.80
2019-06-15T04:14:10.595Z,25.60
2019-06-15T04:15:10.551Z,26.80
2019-06-15T04:17:14.662Z,26.40
2019-06-15T04:18:14.569Z,26.00
2019-06-15T04:20:18.663Z,26.40
2019-06-15T04:21:18.579Z,27.30
2019-06-15T04:23:11.513Z,27.70
2019-06-15T04:24:11.430Z,26.80
2019-06-15T04:26:15.531Z,28.50
2019-06-15T04:27:15.440Z,28.00
2019-06-15T04:29:08.602Z,28.80
2019-06-15T04:30:08.551Z,28.30
2019-06-15T04:32:12.606Z,29.80
2019-06-15T04:33:12.512Z,29.20
2019-06-15T04:35:16.619Z,30.70
2019-06-15T04:36:16.536Z,31.80
2019-06-15T04:38:20.620Z,30.60
2019-06-15T04:39:20.536Z,32.30
2019-06-15T04:41:24.630Z,31.70
2019-06-15T04:42:24.564Z,32.10
2019-06-15T04:44:28.646Z,32.30
2019-06-15T04:45:28.562Z,31.40
2019-06-15T04:47:32.662Z,32.00
2019-06-15T04:48:32.571Z,32.00
2019-06-15T04:50:36.674Z,32.00
2019-06-15T04:51:36.645Z,31.70
2019-06-15T04:53:29.523Z,32.30
2019-06-15T04:54:29.453Z,33.30
2019-06-15T04:56:22.582Z,32.30
2019-06-15T04:57:22.502Z,32.60
2019-06-15T04:59:26.955Z,32.00
2019-06-15T05:00:26.912Z,31.60
2019-06-15T05:02:31.022Z,32.10
2019-06-15T05:03:30.921Z,32.60
2019-06-15T05:05:35.033Z,33.00
2019-06-15T05:06:34.940Z,33.00
2019-06-15T05:08:28.081Z,31.90
2019-06-15T05:09:28.002Z,33.20
2019-06-15T05:11:32.093Z,33.20
2019-06-15T05:12:32.000Z,33.40
2019-06-15T05:14:36.122Z,32.40
2019-06-15T05:15:36.022Z,33.00
2019-06-15T05:17:40.121Z,32.40
2019-06-15T05:18:40.032Z,32.40
2019-06-15T05:20:44.130Z,31.90
2019-06-15T05:21:44.041Z,32.30
2019-06-15T05:23:36.974Z,31.00
2019-06-15T05:24:36.957Z,30.30
2019-06-15T05:26:40.990Z,30.90
2019-06-15T05:27:40.912Z,30.40
2019-06-15T05:29:45.012Z,29.50
2019-06-15T05:30:44.922Z,30.70
2019-06-15T05:32:49.023Z,30.50
2019-06-15T05:33:48.932Z,29.80
2019-06-15T05:35:52.972Z,29.80
2019-06-15T05:36:53.005Z,29.90
2019-06-15T05:38:57.042Z,30.40
2019-06-15T05:39:56.972Z,29.40
2019-06-15T05:42:01.050Z,29.80
2019-06-15T05:43:00.997Z,28.60
2019-06-15T05:45:05.071Z,27.90
2019-06-15T05:46:05.000Z,28.70
2019-06-15T05:48:09.081Z,26.50
2019-06-15T05:49:09.003Z,27.30
2019-06-15T05:51:02.152Z,27.40
2019-06-15T05:52:02.053Z,27.40
2019-06-15T05:53:55.189Z,27.20
2019-06-15T05:54:55.116Z,26.70
2019-06-15T05:56:48.256Z,26.10
2019-06-15T05:57:48.156Z,27.60
2019-06-15T05:59:52.261Z,27.20
2019-06-15T06:00:52.240Z,29.50
2019-06-15T06:02:56.293Z,27.40
2019-06-15T06:03:56.180Z,28.80
2019-06-15T06:06:00.232Z,28.40
2019-06-15T06:07:00.204Z,27.40
2019-06-15T06:09:04.314Z,28.00
2019-06-15T06:10:04.212Z,27.90
2019-06-15T06:12:08.323Z,26.90
2019-06-15T06:13:08.225Z,27.30
2019-06-15T06:15:12.320Z,26.40
2019-06-15T06:16:12.232Z,25.50
2019-06-15T06:18:16.330Z,25.40
2019-06-15T06:19:16.252Z,23.40
2019-06-15T06:21:20.347Z,24.10
2019-06-15T06:22:20.263Z,23.40
2019-06-15T06:24:24.310Z,23.40
2019-06-15T06:25:24.332Z,23.00
2019-06-15T06:27:17.375Z,24.80
2019-06-15T06:28:17.332Z,23.70
2019-06-15T06:30:21.371Z,22.40
2019-06-15T06:31:21.391Z,23.00
2019-06-15T06:33:15.305Z,23.00
2019-06-15T06:34:14.202Z,23.60
2019-06-15T06:36:18.294Z,22.90
2019-06-15T06:37:18.211Z,22.60
2019-06-15T06:39:22.300Z,22.60
2019-06-15T06:40:22.225Z,22.90
2019-06-15T06:42:26.314Z,21.30
2019-06-15T06:43:26.297Z,22.00
2019-06-15T06:45:19.374Z,21.20
2019-06-15T06:46:19.303Z,20.30
2019-06-15T06:48:23.392Z,20.50
2019-06-15T06:49:23.301Z,20.50
2019-06-15T06:51:27.404Z,20.30
2019-06-15T06:52:27.310Z,20.20
2019-06-15T06:54:31.418Z,19.10
2019-06-15T06:55:31.346Z,19.40
2019-06-15T06:57:35.421Z,19.70
2019-06-15T06:58:35.355Z,19.70
2019-06-15T07:00:39.392Z,21.10
2019-06-15T07:01:39.409Z,21.50
2019-06-15T07:03:32.427Z,20.50
2019-06-15T07:04:32.302Z,20.40
2019-06-15T07:06:36.392Z,19.50
2019-06-15T07:07:36.312Z,18.80
2019-06-15T07:09:40.413Z,18.40
2019-06-15T07:10:40.336Z,18.70
2019-06-15T07:12:33.473Z,19.20
2019-06-15T07:13:33.398Z,19.00
2019-06-15T07:15:37.482Z,19.10
2019-06-15T07:16:37.391Z,19.20
2019-06-15T07:18:41.493Z,19.70
2019-06-15T07:19:41.412Z,19.90
2019-06-15T07:21:45.515Z,20.00
2019-06-15T07:22:45.440Z,20.50
2019-06-15T07:24:49.525Z,19.50
2019-06-15T07:25:49.430Z,18.40
2019-06-15T07:28:07.218Z,18.40
2019-06-15T07:28:53.453Z,17.70
2019-06-15T07:30:57.561Z,17.20
2019-06-15T07:31:57.461Z,17.10
2019-06-15T07:33:50.499Z,16.00
2019-06-15T07:34:50.413Z,15.60
2019-06-15T07:36:54.511Z,16.10
2019-06-15T07:37:54.432Z,15.80
2019-06-15T07:39:58.546Z,15.50
2019-06-15T07:40:58.443Z,15.60
2019-06-15T07:43:02.557Z,11.60
2019-06-15T07:44:02.457Z,10.70
2019-06-15T07:45:55.595Z,9.70
2019-06-15T07:46:55.511Z,9.80
2019-06-15T07:48:59.612Z,10.00
2019-06-15T07:49:59.522Z,9.70
2019-06-15T07:51:52.681Z,9.50
2019-06-15T07:52:52.588Z,9.70
2019-06-15T07:54:56.673Z,9.90
2019-06-15T07:55:56.585Z,9.80
2019-06-15T07:57:49.822Z,10.10
2019-06-15T07:58:49.714Z,9.70
2019-06-15T08:00:55.190Z,9.80
2019-06-15T08:01:55.143Z,9.60
2019-06-15T08:03:47.984Z,9.80
2019-06-15T08:04:47.875Z,10.00
2019-06-15T08:06:52.102Z,8.60
2019-06-15T08:07:51.902Z,8.90
2019-06-15T08:09:56.011Z,8.30
2019-06-15T08:10:55.922Z,8.70
2019-06-15T08:12:49.285Z,8.20
2019-06-15T08:13:49.083Z,8.30
2019-06-15T08:15:53.292Z,8.10
2019-06-15T08:16:53.094Z,7.60
2019-06-15T08:18:57.706Z,7.80
2019-06-15T08:19:57.503Z,7.60
2019-06-15T08:20:57.523Z,7.50
2019-06-15T08:21:57.500Z,7.20
2019-06-15T08:22:57.555Z,6.70
2019-06-15T08:23:57.690Z,6.60
2019-06-15T08:24:57.393Z,6.30
2019-06-15T08:25:57.386Z,6.10
2019-06-15T08:26:57.350Z,6.50
2019-06-15T08:27:57.328Z,6.10
2019-06-15T08:28:57.329Z,6.20
2019-06-15T08:29:57.292Z,6.30
2019-06-15T08:30:57.251Z,6.60
2019-06-15T08:31:57.246Z,6.00
2019-06-15T08:32:57.257Z,7.60
2019-06-15T08:33:57.194Z,7.40
2019-06-15T08:34:57.192Z,10.20
2019-06-15T08:35:57.153Z,11.60
2019-06-15T08:36:57.167Z,14.70
2019-06-15T08:37:57.138Z,14.90
2019-06-15T08:38:57.117Z,16.00
2019-06-15T08:39:57.083Z,17.90
2019-06-15T08:40:57.060Z,19.30
2019-06-15T08:41:57.125Z,19.30
2019-06-15T08:42:57.001Z,20.10
2019-06-15T08:43:56.975Z,21.40
2019-06-15T08:44:56.972Z,21.70
2019-06-15T08:45:56.928Z,22.40
2019-06-15T08:46:59.315Z,22.20
2019-06-15T08:47:56.916Z,23.30
2019-06-15T08:48:56.962Z,23.80
2019-06-15T08:49:56.871Z,23.70
2019-06-15T08:50:56.847Z,22.80
2019-06-15T08:51:56.812Z,23.10
2019-06-15T08:52:56.814Z,23.40
2019-06-15T08:53:56.766Z,23.90
2019-06-15T08:54:56.766Z,24.40
2019-06-15T08:55:56.735Z,24.30
2019-06-15T08:56:56.722Z,23.90
2019-06-15T08:57:56.690Z,24.30
2019-06-15T08:58:56.647Z,24.00
2019-06-15T08:59:56.664Z,24.30
2019-06-15T09:00:56.657Z,25.20
2019-06-15T09:01:56.646Z,25.50
2019-06-15T09:02:56.602Z,24.60
2019-06-15T09:03:56.572Z,23.60
2019-06-15T09:04:56.518Z,23.30
2019-06-15T09:05:56.511Z,23.40
2019-06-15T09:06:56.497Z,23.20
2019-06-15T09:07:56.473Z,22.30
2019-06-15T09:08:56.480Z,22.60
2019-06-15T09:09:56.451Z,22.30
2019-06-15T09:10:56.384Z,21.00
2019-06-15T09:11:56.418Z,20.70
2019-06-15T09:12:56.387Z,21.30
2019-06-15T09:13:56.354Z,19.50
2019-06-15T09:14:56.312Z,19.30
2019-06-15T09:15:56.323Z,19.10
2019-06-15T09:16:56.270Z,18.00
2019-06-15T09:17:56.264Z,18.40
2019-06-15T09:18:57.535Z,18.50
2019-06-15T09:19:56.207Z,18.00
2019-06-15T09:20:56.209Z,17.80
2019-06-15T09:21:56.200Z,16.90
2019-06-15T09:22:56.122Z,16.50
2019-06-15T09:23:56.129Z,16.20
2019-06-15T09:24:56.081Z,16.20
2019-06-15T09:25:56.079Z,15.40
2019-06-15T09:26:56.073Z,14.40
2019-06-15T09:27:56.021Z,13.70
2019-06-15T09:29:10.004Z,13.10
2019-06-15T09:29:55.980Z,12.10
2019-06-15T09:30:55.996Z,10.20
2019-06-15T09:31:55.932Z,9.50
2019-06-15T09:32:55.965Z,10.10
2019-06-15T09:33:55.911Z,9.60
2019-06-15T09:34:55.892Z,9.60
2019-06-15T09:35:55.864Z,9.20
2019-06-15T09:36:55.875Z,9.10
2019-06-15T09:37:55.807Z,9.30
2019-06-15T09:39:03.106Z,8.10
2019-06-15T09:40:59.864Z,7.10
2019-06-15T09:41:59.772Z,7.50
2019-06-15T09:44:03.862Z,6.90
2019-06-15T09:45:03.784Z,7.00
2019-06-15T09:47:07.897Z,6.50
2019-06-15T09:48:07.816Z,6.30
2019-06-15T09:50:11.899Z,5.70
2019-06-15T09:51:11.812Z,5.00
2019-06-15T09:53:04.808Z,4.20
2019-06-15T09:54:04.815Z,4.00
2019-06-15T09:56:08.862Z,3.30
2019-06-15T09:57:08.775Z,2.80
2019-06-15T09:59:25.277Z,2.40
2019-06-15T10:00:12.784Z,2.30
2019-06-15T10:02:17.011Z,2.70
2019-06-15T10:03:16.812Z,2.60
2019-06-15T10:05:20.896Z,2.80
2019-06-15T10:06:20.821Z,2.60
2019-06-15T10:08:24.915Z,2.70
2019-06-15T10:09:24.826Z,2.80
2019-06-15T10:11:28.895Z,3.30
2019-06-15T10:12:28.856Z,3.00
2019-06-15T10:14:32.887Z,3.00
2019-06-15T10:15:32.853Z,2.70
2019-06-15T10:17:36.933Z,2.80
2019-06-15T10:18:38.780Z,2.80
2019-06-15T10:20:41.103Z,3.10
2019-06-15T10:21:40.912Z,3.30
2019-06-15T10:23:33.962Z,3.50
2019-06-15T10:24:33.888Z,3.60
2019-06-15T10:26:38.924Z,3.40
2019-06-15T10:27:38.718Z,3.30
2019-06-15T10:29:43.753Z,3.80
2019-06-15T10:30:43.533Z,3.30
2019-06-15T10:32:48.564Z,3.10
2019-06-15T10:33:48.372Z,3.30
2019-06-15T10:35:53.348Z,2.80
2019-06-15T10:36:53.303Z,3.10
2019-06-15T10:38:57.414Z,2.80
2019-06-15T10:39:57.327Z,2.60
2019-06-15T10:42:01.439Z,2.80
2019-06-15T10:43:01.357Z,2.50
2019-06-15T10:45:05.441Z,2.50
2019-06-15T10:46:05.355Z,2.30
2019-06-15T10:48:09.463Z,2.50
2019-06-15T10:49:09.370Z,2.20
2019-06-15T10:51:13.472Z,2.10
2019-06-15T10:52:13.449Z,2.20
2019-06-15T10:54:17.483Z,2.00
2019-06-15T10:55:17.442Z,2.10
2019-06-15T10:57:21.454Z,1.80
2019-06-15T10:58:21.413Z,1.70
2019-06-15T11:00:25.523Z,2.00
2019-06-15T11:01:25.431Z,1.70
2019-06-15T11:03:18.526Z,2.00
2019-06-15T11:04:18.435Z,2.00
2019-06-15T11:06:22.485Z,1.90
2019-06-15T11:07:22.403Z,1.90
2019-06-15T11:09:26.501Z,2.20
2019-06-15T11:10:26.438Z,2.30
2019-06-15T11:12:45.102Z,1.90
2019-06-15T11:13:30.452Z,2.10
2019-06-15T11:15:35.352Z,2.10
2019-06-15T11:16:35.262Z,2.30
2019-06-15T11:18:40.123Z,2.10
2019-06-15T11:19:40.118Z,2.00
2019-06-15T11:21:33.357Z,2.40
2019-06-15T11:22:33.263Z,2.50
2019-06-15T11:24:37.565Z,2.20
2019-06-15T11:25:37.386Z,2.40
2019-06-15T11:27:41.681Z,2.50
2019-06-15T11:28:41.656Z,2.40
2019-06-15T11:30:45.818Z,2.40
2019-06-15T11:31:45.621Z,2.60
2019-06-15T11:33:39.693Z,2.70
2019-06-15T11:34:39.500Z,2.50
2019-06-15T11:36:43.792Z,2.70
2019-06-15T11:37:43.625Z,2.70
2019-06-15T11:39:47.821Z,2.80
2019-06-15T11:40:47.651Z,2.70
2019-06-15T11:42:51.852Z,3.00
2019-06-15T11:43:51.757Z,2.80
2019-06-15T11:45:55.942Z,2.90
2019-06-15T11:46:55.855Z,3.00
2019-06-15T11:49:00.823Z,3.00
2019-06-15T11:50:00.792Z,3.00
2019-06-15T11:52:05.662Z,3.30
2019-06-15T11:53:05.703Z,2.80
2019-06-15T11:55:09.731Z,2.70
2019-06-15T11:56:09.644Z,2.80
2019-06-15T11:58:14.561Z,2.80
2019-06-15T11:59:14.482Z,2.70
2019-06-15T12:01:19.412Z,2.90
2019-06-15T12:02:19.322Z,2.70
2019-06-15T12:04:24.267Z,2.60
2019-06-15T12:05:24.159Z,2.90
2019-06-15T12:07:29.079Z,2.90
2019-06-15T12:08:29.010Z,2.60
2019-06-15T12:10:33.024Z,2.50
2019-06-15T12:11:32.991Z,2.40
2019-06-15T12:13:26.057Z,2.40
2019-06-15T12:14:25.941Z,2.50
2019-06-15T12:16:30.875Z,2.10
2019-06-15T12:17:30.782Z,2.80
2019-06-15T12:19:35.701Z,2.40
2019-06-15T12:20:38.289Z,2.50
2019-06-15T12:22:39.738Z,2.80
2019-06-15T12:23:39.645Z,2.40
2019-06-15T12:25:44.574Z,2.60
2019-06-15T12:26:44.523Z,2.50
2019-06-15T12:28:49.437Z,3.00
2019-06-15T12:29:49.340Z,2.90
2019-06-15T12:31:54.161Z,2.80
2019-06-15T12:32:54.203Z,2.70
2019-06-15T12:34:59.062Z,2.90
2019-06-15T12:35:58.972Z,2.40
2019-06-15T12:38:03.903Z,2.70
2019-06-15T12:39:03.813Z,2.60
2019-06-15T12:41:07.917Z,2.70
2019-06-15T12:42:07.821Z,2.70
2019-06-15T12:43:07.893Z,3.00
2019-06-15T12:44:07.809Z,2.60
2019-06-15T12:45:07.802Z,2.60
2019-06-15T12:46:07.751Z,2.60
2019-06-15T12:47:07.814Z,2.40
2019-06-15T12:48:07.724Z,2.70
2019-06-15T12:49:07.833Z,2.50
2019-06-15T12:50:07.917Z,3.20
2019-06-15T12:51:07.743Z,2.30
2019-06-15T12:52:07.664Z,2.20
2019-06-15T12:53:07.656Z,2.30
2019-06-15T12:54:07.620Z,2.40
2019-06-15T12:55:07.674Z,2.40
2019-06-15T12:56:07.590Z,2.30
2019-06-15T12:57:07.683Z,2.20
2019-06-15T12:58:07.566Z,2.20
2019-06-15T12:59:07.594Z,2.20
2019-06-15T13:00:07.523Z,2.10
2019-06-15T13:01:07.616Z,2.40
2019-06-15T13:02:07.495Z,2.40
2019-06-15T13:03:07.555Z,2.70
2019-06-15T13:04:07.464Z,2.90
2019-06-15T13:05:07.546Z,2.60
2019-06-15T13:06:07.414Z,2.40
2019-06-15T13:07:07.443Z,2.10
2019-06-15T13:08:07.382Z,2.20
2019-06-15T13:09:07.372Z,2.20
2019-06-15T13:10:07.353Z,1.90
2019-06-15T13:11:07.384Z,2.20
2019-06-15T13:12:07.310Z,2.00
2019-06-15T13:13:07.387Z,2.20
2019-06-15T13:14:07.403Z,2.30
2019-06-15T13:15:07.273Z,2.30
2019-06-15T13:16:07.313Z,2.30
2019-06-15T13:17:07.240Z,2.30
2019-06-15T13:18:07.322Z,2.40
2019-06-15T13:19:07.209Z,2.70
2019-06-15T13:20:07.231Z,2.50
2019-06-15T13:21:07.172Z,2.20
2019-06-15T13:22:07.242Z,2.40
2019-06-15T13:23:07.161Z,2.40
2019-06-15T13:24:07.161Z,2.40
2019-06-15T13:25:07.167Z,2.60
2019-06-15T13:26:07.092Z,2.50
2019-06-15T13:27:07.172Z,2.40
2019-06-15T13:28:07.082Z,2.40
2019-06-15T13:29:07.091Z,2.30
2019-06-15T13:30:07.098Z,2.30
2019-06-15T13:31:17.803Z,2.40
2019-06-15T13:32:06.995Z,2.50
2019-06-15T13:33:07.016Z,2.70
2019-06-15T13:34:06.952Z,2.50
2019-06-15T13:35:07.047Z,2.70
2019-06-15T13:36:06.957Z,2.40
2019-06-15T13:37:06.942Z,2.60
2019-06-15T13:38:06.895Z,2.30
2019-06-15T13:39:06.966Z,2.40
2019-06-15T13:40:06.863Z,2.30
2019-06-15T13:41:06.843Z,2.20
2019-06-15T13:42:06.872Z,2.60
2019-06-15T13:43:06.813Z,2.60
2019-06-15T13:44:06.898Z,2.30
2019-06-15T13:45:06.786Z,2.40
2019-06-15T13:46:06.754Z,2.20
2019-06-15T13:47:06.810Z,2.90
2019-06-15T13:48:06.723Z,2.50
2019-06-15T13:49:06.832Z,2.50
2019-06-15T13:50:06.741Z,2.30
2019-06-15T13:51:06.700Z,2.40
2019-06-15T13:52:06.674Z,2.40
2019-06-15T13:53:06.755Z,2.80
2019-06-15T13:54:06.623Z,2.60
2019-06-15T13:55:06.663Z,2.60
2019-06-15T13:56:06.595Z,2.80
2019-06-15T13:57:06.581Z,2.50
2019-06-15T13:58:06.588Z,2.50
2019-06-15T13:59:06.542Z,2.80
2019-06-15T14:00:06.619Z,2.80
2019-06-15T14:01:06.505Z,2.50
2019-06-15T14:02:06.499Z,2.40
2019-06-15T14:03:06.511Z,2.80
2019-06-15T14:04:06.458Z,3.30
2019-06-15T14:05:06.528Z,2.90
2019-06-15T14:06:06.423Z,3.10
2019-06-15T14:07:06.400Z,2.80
2019-06-15T14:08:06.382Z,3.10
2019-06-15T14:09:06.463Z,2.80
2019-06-15T14:10:06.352Z,2.80
2019-06-15T14:11:06.362Z,2.90
2019-06-15T14:12:06.325Z,2.90
2019-06-15T14:13:06.310Z,2.90
2019-06-15T14:14:06.384Z,3.20
2019-06-15T14:15:06.264Z,3.00
2019-06-15T14:16:06.303Z,3.00
2019-06-15T14:17:06.231Z,3.20
2019-06-15T14:18:06.217Z,3.10
2019-06-15T14:19:06.208Z,3.20
2019-06-15T14:20:06.243Z,3.30
2019-06-15T14:21:06.163Z,3.10
2019-06-15T14:22:06.251Z,3.10
2019-06-15T14:23:06.136Z,2.90
2019-06-15T14:24:06.163Z,2.90
2019-06-15T14:25:06.101Z,3.20
2019-06-15T14:26:06.179Z,3.10
2019-06-15T14:27:06.083Z,3.10
2019-06-15T14:28:06.092Z,3.10
2019-06-15T14:29:06.086Z,2.90
2019-06-15T14:30:06.166Z,3.10
2019-06-15T14:31:06.017Z,2.90
2019-06-15T14:32:07.055Z,3.00
2019-06-15T14:33:05.966Z,3.50
2019-06-15T14:34:05.966Z,3.60
2019-06-15T14:35:06.041Z,3.30
2019-06-15T14:36:05.956Z,3.10
2019-06-15T14:37:06.976Z,3.30
2019-06-15T14:38:05.903Z,2.70
2019-06-15T14:39:06.296Z,3.20
2019-06-15T14:40:05.892Z,3.10
2019-06-15T14:41:05.880Z,3.50
2019-06-15T14:42:05.822Z,3.30
2019-06-15T14:43:06.001Z,3.40
2019-06-15T14:44:05.794Z,3.00
2019-06-15T14:45:05.772Z,3.30
2019-06-15T14:46:05.753Z,3.10
2019-06-15T14:47:05.821Z,3.10
2019-06-15T14:48:05.743Z,3.50
2019-06-15T14:49:05.737Z,3.00
2019-06-15T14:50:05.694Z,3.00
2019-06-15T14:51:05.753Z,3.00
2019-06-15T14:52:05.708Z,3.40
2019-06-15T14:53:05.663Z,3.40
2019-06-15T14:54:06.687Z,3.50
2019-06-15T14:55:07.210Z,3.60
2019-06-15T14:56:06.833Z,3.40
2019-06-15T14:57:06.820Z,3.50
2019-06-15T14:58:17.233Z,3.40
2019-06-15T14:59:16.874Z,3.70
2019-06-15T15:01:20.915Z,3.60
2019-06-15T15:02:20.835Z,3.60
2019-06-15T15:04:26.626Z,3.60
2019-06-15T15:05:27.348Z,3.00
2019-06-15T15:07:28.940Z,2.70
2019-06-15T15:08:28.863Z,3.00
2019-06-15T15:10:32.902Z,3.20
2019-06-15T15:11:32.899Z,3.40
2019-06-15T15:13:26.433Z,3.20
2019-06-15T15:14:26.120Z,3.20
2019-06-15T15:16:30.756Z,3.10
2019-06-15T15:17:30.674Z,3.10
2019-06-15T15:19:36.093Z,3.00
2019-06-15T15:20:34.681Z,2.70
2019-06-15T15:22:38.791Z,3.00
2019-06-15T15:23:38.720Z,2.30
2019-06-15T15:25:42.802Z,2.50
2019-06-15T15:26:43.793Z,2.30
2019-06-15T15:28:47.345Z,2.30
2019-06-15T15:29:46.720Z,2.40
2019-06-15T15:31:50.782Z,2.50
2019-06-15T15:32:50.742Z,2.30
2019-06-15T15:34:56.022Z,2.40
2019-06-15T15:35:54.767Z,2.60
2019-06-15T15:37:58.852Z,2.60
2019-06-15T15:39:09.369Z,3.10
2019-06-15T15:41:02.860Z,2.90
2019-06-15T15:42:02.802Z,3.30
2019-06-15T15:44:06.883Z,2.70
2019-06-15T15:45:07.289Z,2.80
2019-06-15T15:47:10.910Z,2.80
2019-06-15T15:48:10.862Z,2.70
2019-06-15T15:50:17.630Z,2.60
2019-06-15T15:51:16.978Z,2.50
2019-06-15T15:53:07.800Z,2.60
2019-06-15T15:54:07.788Z,2.50
2019-06-15T15:56:11.872Z,2.10
2019-06-15T15:57:11.793Z,2.40
2019-06-15T15:59:16.307Z,2.40
2019-06-15T16:00:16.471Z,2.20
2019-06-15T16:02:19.891Z,2.30
2019-06-15T16:03:19.826Z,2.30
2019-06-15T16:05:26.461Z,2.30
2019-06-15T16:06:25.929Z,2.20
2019-06-15T16:08:28.401Z,2.30
2019-06-15T16:09:27.893Z,2.30